Terminal Aerodrome Forecast
Issued by NWS

Home | Current Version | Previous Version | Text Only | Print | Product List | Glossary Off
Versions: 1 2 3 4 5 6 7 8 9 10 11 12 13 14

000
FTUS45 KRIW 161800 AAA
TAFCPR
TAF AMD
KCPR 161842Z 1619/1718 27010KT P6SM VCSH SCT030 BKN050
      TEMPO 1619/1621 1SM -SHSN BKN020
     FM162100 01011KT P6SM VCSH SCT050 BKN080
     FM170400 09007KT P6SM SCT090 BKN150
     FM171100 21009KT P6SM FEW100 SCT200=

USA.gov is the U.S. government's official web portal to all federal, state and local government web resources and services.